Time;durP1;ratioP1;P1;durP2;ratioP2;P2;SDS_P1;SDS_P2;PMS_P1;PMS_P2;Temp;Humidity;BMP_temperature;BMP_pressure;BME280_temperature;BME280_humidity;BME280_pressure;Samples;Min_cycle;Max_cycle;Signal;HPM_P1;HPM_P2
2022/08/06 00:01:32;;;;;;;2.97;1.55;;;19.20;85.10;;;;;;5003528;28;20517;-68
2022/08/06 00:03:58;;;;;;;2.55;1.55;;;19.20;84.90;;;;;;5010396;28;20484;-68
2022/08/06 00:06:23;;;;;;;2.50;1.33;;;19.10;84.90;;;;;;5009961;28;20053;-68
2022/08/06 00:08:49;;;;;;;2.22;1.33;;;19.10;84.90;;;;;;5008453;28;20030;-68
2022/08/06 00:11:14;;;;;;;1.63;1.20;;;19.20;84.80;;;;;;5010439;28;20038;-67
2022/08/06 00:13:40;;;;;;;2.72;1.30;;;19.10;85.00;;;;;;5011047;28;20022;-68
2022/08/06 00:16:05;;;;;;;3.28;1.30;;;19.10;84.90;;;;;;5010057;28;20021;-67
2022/08/06 00:18:31;;;;;;;2.10;1.08;;;19.10;85.00;;;;;;5008844;28;20029;-68
2022/08/06 00:20:56;;;;;;;2.72;1.33;;;19.00;84.80;;;;;;5011634;28;20045;-68
2022/08/06 00:23:22;;;;;;;2.85;1.30;;;18.90;85.00;;;;;;5010321;28;20026;-68
2022/08/06 00:25:48;;;;;;;3.50;1.65;;;19.00;85.00;;;;;;5010102;28;20026;-68
2022/08/06 00:28:13;;;;;;;2.30;1.38;;;18.80;84.80;;;;;;5009690;28;20452;-68
2022/08/06 00:30:39;;;;;;;1.65;1.10;;;18.80;84.90;;;;;;5010903;28;20072;-67
2022/08/06 00:33:05;;;;;;;2.28;1.30;;;18.80;85.00;;;;;;5009580;28;20080;-67
2022/08/06 00:35:30;;;;;;;2.47;1.30;;;18.80;84.80;;;;;;5011764;28;20026;-68
2022/08/06 00:37:56;;;;;;;2.50;1.27;;;18.70;84.60;;;;;;5008710;28;20176;-67
2022/08/06 00:40:23;;;;;;;2.47;1.20;;;18.60;84.80;;;;;;5010849;28;20113;-68
2022/08/06 00:42:50;;;;;;;1.77;1.30;;;18.60;85.00;;;;;;5009398;28;20026;-68
2022/08/06 00:45:16;;;;;;;2.95;1.35;;;18.60;84.90;;;;;;5010705;28;20047;-68
2022/08/06 00:47:42;;;;;;;3.15;1.45;;;18.60;85.00;;;;;;5009785;28;20117;-68
2022/08/06 00:50:07;;;;;;;3.25;1.30;;;18.60;84.90;;;;;;5010611;28;20022;-68
2022/08/06 00:52:33;;;;;;;3.25;1.25;;;18.60;84.80;;;;;;5010964;28;20080;-68
2022/08/06 00:54:59;;;;;;;3.00;1.10;;;18.60;84.90;;;;;;5009735;28;20034;-68
2022/08/06 00:57:24;;;;;;;2.03;1.27;;;18.60;85.10;;;;;;5008914;28;20026;-69
2022/08/06 00:59:50;;;;;;;2.38;1.40;;;18.50;85.00;;;;;;5000298;28;20117;-69
2022/08/06 01:02:15;;;;;;;1.77;1.30;;;18.40;85.10;;;;;;5008855;28;20033;-68
2022/08/06 01:04:42;;;;;;;1.38;1.10;;;18.40;85.10;;;;;;5010502;28;20026;-69
2022/08/06 01:07:07;;;;;;;2.10;1.13;;;18.40;84.90;;;;;;5011565;28;20033;-68
2022/08/06 01:09:33;;;;;;;1.77;1.10;;;18.40;84.90;;;;;;5011536;28;20377;-69
2022/08/06 01:11:58;;;;;;;1.90;1.40;;;18.30;84.80;;;;;;5013951;28;20053;-68
2022/08/06 01:14:24;;;;;;;2.50;1.00;;;18.30;84.90;;;;;;5012474;28;20532;-68
2022/08/06 01:16:59;;;;;;;2.42;1.13;;;18.30;85.00;;;;;;5012956;28;20077;-68
2022/08/06 01:19:24;;;;;;;2.38;1.10;;;18.20;85.30;;;;;;5014246;28;20042;-68
2022/08/06 01:22:20;;;;;;;1.55;1.00;;;18.30;85.00;;;;;;5014008;28;20030;-68
2022/08/06 01:25:18;;;;;;;1.15;0.90;;;18.20;84.90;;;;;;5012942;28;20396;-68
2022/08/06 01:28:06;;;;;;;3.10;1.10;;;18.10;84.90;;;;;;5010913;28;20030;-67
2022/08/06 01:30:37;;;;;;;1.90;0.90;;;18.10;85.00;;;;;;5007684;28;20029;-68
2022/08/06 01:33:09;;;;;;;1.38;1.10;;;18.10;85.20;;;;;;5013433;28;20037;-68
2022/08/06 01:35:39;;;;;;;2.65;1.10;;;18.10;84.90;;;;;;5013097;28;20022;-68
2022/08/06 01:38:10;;;;;;;1.77;1.20;;;18.00;85.30;;;;;;5013607;28;20069;-68
2022/08/06 01:40:38;;;;;;;1.38;1.10;;;18.00;85.30;;;;;;5012723;28;20037;-68
2022/08/06 01:43:08;;;;;;;1.38;1.13;;;18.00;85.10;;;;;;5012587;28;20036;-69
2022/08/06 01:45:37;;;;;;;1.17;0.82;;;18.00;85.20;;;;;;5011814;28;20029;-68
2022/08/06 01:48:08;;;;;;;3.45;1.20;;;18.00;85.40;;;;;;5013578;28;20033;-68
2022/08/06 01:50:37;;;;;;;4.57;1.83;;;17.90;85.40;;;;;;5021569;28;20095;-68
2022/08/06 01:53:05;;;;;;;1.50;1.00;;;17.90;85.80;;;;;;5014164;28;20065;-68
2022/08/06 01:55:37;;;;;;;3.47;1.20;;;17.90;85.70;;;;;;5011545;28;20097;-69
2022/08/06 01:58:05;;;;;;;1.95;1.20;;;17.90;85.80;;;;;;5012947;28;20433;-68
2022/08/06 02:00:33;;;;;;;3.40;1.50;;;17.90;85.90;;;;;;5011845;28;20080;-68
2022/08/06 02:03:01;;;;;;;3.17;1.05;;;17.80;85.60;;;;;;5012874;28;20389;-68
2022/08/06 02:05:28;;;;;;;2.42;1.00;;;17.80;85.90;;;;;;5009977;28;20398;-68
2022/08/06 02:07:56;;;;;;;3.22;1.33;;;17.80;86.10;;;;;;5012970;28;20084;-68
2022/08/06 02:10:27;;;;;;;2.15;1.20;;;17.80;86.10;;;;;;5012768;28;20056;-68
2022/08/06 02:12:53;;;;;;;2.85;1.10;;;17.80;86.00;;;;;;5011444;28;20034;-68
2022/08/06 02:15:26;;;;;;;1.13;0.93;;;17.90;86.00;;;;;;5012178;28;20540;-68
2022/08/06 02:17:55;;;;;;;3.42;1.00;;;17.80;85.90;;;;;;5011652;28;20040;-67
2022/08/06 02:20:26;;;;;;;1.90;1.30;;;17.70;86.20;;;;;;5013179;28;20088;-67
2022/08/06 02:22:54;;;;;;;2.08;1.25;;;17.70;86.20;;;;;;5012746;28;20116;-67
2022/08/06 02:25:21;;;;;;;1.27;1.13;;;17.70;86.20;;;;;;5012018;28;20017;-69
2022/08/06 02:27:50;;;;;;;2.17;1.20;;;17.50;86.60;;;;;;5012886;28;20028;-68
2022/08/06 02:30:16;;;;;;;1.42;1.00;;;17.50;87.00;;;;;;5012632;28;20029;-68
2022/08/06 02:32:42;;;;;;;3.25;1.20;;;17.40;87.40;;;;;;5012577;28;20448;-69
2022/08/06 02:35:09;;;;;;;4.15;1.35;;;17.40;87.70;;;;;;5010707;28;20107;-69
2022/08/06 02:37:55;;;;;;;1.27;1.10;;;17.40;87.60;;;;;;5012777;28;20045;-69
2022/08/06 02:40:27;;;;;;;3.05;1.38;;;17.40;87.80;;;;;;5011596;28;20153;-68
2022/08/06 02:43:03;;;;;;;2.10;1.67;;;17.40;87.90;;;;;;5012530;28;20033;-68
2022/08/06 02:45:52;;;;;;;3.15;1.20;;;17.40;87.90;;;;;;5010799;28;20426;-68
2022/08/06 02:48:27;;;;;;;1.85;1.30;;;17.40;88.00;;;;;;5012493;28;20033;-68
2022/08/06 02:50:55;;;;;;;1.20;1.10;;;17.50;88.10;;;;;;5011791;28;20032;-68
2022/08/06 02:53:24;;;;;;;3.92;1.30;;;17.40;88.10;;;;;;5012549;28;20416;-68
2022/08/06 02:55:55;;;;;;;2.90;1.00;;;17.50;87.90;;;;;;5011327;28;20038;-68
2022/08/06 02:58:32;;;;;;;3.40;1.60;;;17.40;88.00;;;;;;5012278;28;20034;-68
2022/08/06 03:01:02;;;;;;;2.10;1.05;;;17.40;88.40;;;;;;5011649;28;20061;-67
2022/08/06 03:03:30;;;;;;;1.02;0.93;;;17.40;88.20;;;;;;5012133;28;20033;-68
2022/08/06 03:05:58;;;;;;;2.85;1.58;;;17.40;88.00;;;;;;5010262;28;20053;-68
2022/08/06 03:08:25;;;;;;;1.63;1.10;;;17.40;88.10;;;;;;5012031;28;20044;-68
2022/08/06 03:10:54;;;;;;;1.83;1.00;;;17.40;88.20;;;;;;5010337;28;20033;-68
2022/08/06 03:13:22;;;;;;;2.13;1.10;;;17.40;88.00;;;;;;5010894;28;20068;-68
2022/08/06 03:15:49;;;;;;;2.97;1.10;;;17.40;87.90;;;;;;5011182;28;20041;-68
2022/08/06 03:18:16;;;;;;;2.47;1.08;;;17.40;87.70;;;;;;5011106;28;20545;-67
2022/08/06 03:20:43;;;;;;;1.40;1.10;;;17.30;87.70;;;;;;5011776;28;20026;-67
2022/08/06 03:23:11;;;;;;;2.47;1.20;;;17.30;88.00;;;;;;5011557;28;20034;-67
2022/08/06 03:25:39;;;;;;;1.35;1.10;;;17.30;87.70;;;;;;5011451;28;20541;-67
2022/08/06 03:28:05;;;;;;;2.47;1.08;;;17.20;87.70;;;;;;5011518;28;20029;-67
2022/08/06 03:30:33;;;;;;;2.22;1.30;;;17.20;87.80;;;;;;5010806;28;20025;-67
2022/08/06 03:33:06;;;;;;;2.40;1.10;;;17.20;87.60;;;;;;5010576;28;20037;-67
2022/08/06 03:35:34;;;;;;;3.33;1.00;;;17.10;87.80;;;;;;5011582;28;20385;-68
2022/08/06 03:38:00;;;;;;;1.65;1.20;;;17.20;87.90;;;;;;5010064;28;20038;-69
2022/08/06 03:40:27;;;;;;;2.70;1.35;;;17.10;87.60;;;;;;5011340;28;20030;-68
2022/08/06 03:42:53;;;;;;;1.33;0.85;;;17.10;87.80;;;;;;5010377;28;20397;-69
2022/08/06 03:45:19;;;;;;;3.47;1.27;;;17.10;87.80;;;;;;5010529;28;20026;-69
2022/08/06 03:47:51;;;;;;;1.15;0.93;;;17.20;87.70;;;;;;5010851;28;20412;-69
2022/08/06 03:50:24;;;;;;;2.30;1.13;;;17.20;87.70;;;;;;5011020;28;20026;-69
2022/08/06 03:52:56;;;;;;;1.17;0.90;;;17.10;87.70;;;;;;5010727;28;20355;-68
2022/08/06 03:55:27;;;;;;;2.55;1.08;;;17.10;87.80;;;;;;4994591;28;20149;-68
2022/08/06 03:57:57;;;;;;;1.77;1.00;;;17.00;87.80;;;;;;5010390;28;20370;-68
2022/08/06 04:00:25;;;;;;;1.90;1.00;;;17.10;88.00;;;;;;5005822;28;20087;-69
2022/08/06 04:02:53;;;;;;;1.80;1.00;;;17.10;88.00;;;;;;5010522;28;20045;-67
2022/08/06 04:05:21;;;;;;;1.73;1.20;;;17.10;88.00;;;;;;5011054;28;20046;-68
2022/08/06 04:07:49;;;;;;;1.33;1.20;;;17.10;88.00;;;;;;5009840;28;20022;-68
2022/08/06 04:10:16;;;;;;;2.40;1.30;;;17.20;88.10;;;;;;5009933;28;20025;-69
2022/08/06 04:12:44;;;;;;;1.88;1.38;;;17.20;87.80;;;;;;5010993;28;20036;-68
2022/08/06 04:15:12;;;;;;;2.95;1.35;;;17.20;87.50;;;;;;5010718;28;20370;-68
2022/08/06 04:17:41;;;;;;;4.13;1.33;;;17.20;87.80;;;;;;5004323;28;20036;-68
2022/08/06 04:20:09;;;;;;;1.05;0.95;;;17.20;87.90;;;;;;5010831;28;20022;-68
2022/08/06 04:22:35;;;;;;;2.90;1.23;;;17.20;87.90;;;;;;5010850;28;20034;-68
2022/08/06 04:25:01;;;;;;;3.00;1.40;;;17.30;87.90;;;;;;5010606;28;20105;-68
2022/08/06 04:27:28;;;;;;;2.20;1.20;;;17.30;87.70;;;;;;5010148;28;20033;-67
2022/08/06 04:29:56;;;;;;;1.65;1.20;;;17.30;87.80;;;;;;5011643;28;20032;-67
2022/08/06 04:32:22;;;;;;;1.40;1.10;;;17.30;88.00;;;;;;5007643;28;20036;-68
2022/08/06 04:34:49;;;;;;;10.68;2.03;;;17.30;87.90;;;;;;5012030;28;20040;-69
2022/08/06 04:37:15;;;;;;;2.17;1.20;;;17.30;88.00;;;;;;5008160;28;20041;-68
2022/08/06 04:39:41;;;;;;;1.98;1.23;;;17.30;87.90;;;;;;5010424;28;20452;-68
2022/08/06 04:42:07;;;;;;;3.55;1.30;;;17.30;87.80;;;;;;5012589;28;20115;-68
2022/08/06 04:44:35;;;;;;;3.00;1.30;;;17.40;87.70;;;;;;5014222;28;20475;-68
2022/08/06 04:47:02;;;;;;;7.35;1.40;;;17.40;87.40;;;;;;5013520;28;20103;-68
2022/08/06 04:49:28;;;;;;;2.30;1.60;;;17.40;87.30;;;;;;5014502;28;20030;-68
2022/08/06 04:51:55;;;;;;;1.98;1.25;;;17.40;87.90;;;;;;5013633;28;20409;-68
2022/08/06 04:54:21;;;;;;;3.28;1.33;;;17.40;87.50;;;;;;5014583;28;20033;-68
2022/08/06 04:56:47;;;;;;;3.75;1.88;;;17.40;88.30;;;;;;5013581;28;20492;-67
2022/08/06 04:59:12;;;;;;;2.05;1.23;;;17.40;87.50;;;;;;5013795;28;20034;-67
2022/08/06 05:01:38;;;;;;;2.00;1.20;;;17.40;87.50;;;;;;5008906;28;20022;-68
2022/08/06 05:04:04;;;;;;;3.75;1.20;;;17.40;87.60;;;;;;5014946;28;20030;-67
2022/08/06 05:07:06;;;;;;;3.30;1.25;;;17.50;87.70;;;;;;5013226;28;20046;-68
2022/08/06 05:09:33;;;;;;;1.73;1.02;;;17.50;87.40;;;;;;5012430;28;20046;-67
2022/08/06 05:12:04;;;;;;;1.80;1.58;;;17.60;87.50;;;;;;5008809;28;20033;-68
2022/08/06 05:14:48;;;;;;;4.15;1.38;;;17.60;87.60;;;;;;5014327;28;20127;-68
2022/08/06 05:17:16;;;;;;;1.70;1.05;;;17.60;87.50;;;;;;5013286;28;20046;-68
2022/08/06 05:19:47;;;;;;;2.80;1.40;;;17.60;87.40;;;;;;5014145;28;20029;-68
2022/08/06 05:22:16;;;;;;;1.70;1.23;;;17.60;87.20;;;;;;5012277;28;20405;-67
2022/08/06 05:24:42;;;;;;;5.25;1.52;;;17.60;87.20;;;;;;5015184;28;20033;-67
2022/08/06 05:27:10;;;;;;;3.03;1.67;;;17.60;86.80;;;;;;5012937;28;20042;-67
2022/08/06 05:29:36;;;;;;;2.08;1.10;;;17.50;87.30;;;;;;5013151;28;20034;-68
2022/08/06 05:32:02;;;;;;;2.67;1.17;;;17.50;87.40;;;;;;5013365;28;20099;-68
2022/08/06 05:34:28;;;;;;;2.88;1.20;;;17.50;87.30;;;;;;5013445;28;20018;-68
2022/08/06 05:36:53;;;;;;;1.75;1.27;;;17.50;87.10;;;;;;5012631;28;20053;-68
2022/08/06 05:39:19;;;;;;;6.78;1.65;;;17.40;87.20;;;;;;5013058;28;20493;-68
2022/08/06 05:41:46;;;;;;;3.08;1.55;;;17.40;87.50;;;;;;5012725;28;20034;-68
2022/08/06 05:44:11;;;;;;;3.63;1.30;;;17.40;87.20;;;;;;5013672;28;20181;-68
2022/08/06 05:46:50;;;;;;;9.80;1.75;;;17.30;87.60;;;;;;5012731;28;20109;-67
2022/08/06 05:49:27;;;;;;;5.55;1.85;;;17.30;87.70;;;;;;5013437;28;20118;-67
2022/08/06 05:52:04;;;;;;;5.28;1.30;;;17.30;87.80;;;;;;5013128;28;20480;-67
2022/08/06 05:54:36;;;;;;;5.80;1.60;;;17.30;87.70;;;;;;5013433;28;20029;-68
2022/08/06 05:57:21;;;;;;;2.55;1.20;;;17.30;87.90;;;;;;5013222;28;20049;-67
2022/08/06 05:59:52;;;;;;;3.10;1.27;;;17.30;88.00;;;;;;5010095;28;20022;-67
2022/08/06 06:02:19;;;;;;;3.55;1.58;;;17.30;87.90;;;;;;5012596;28;20030;-68
2022/08/06 06:04:47;;;;;;;2.15;1.50;;;17.30;88.40;;;;;;5011706;28;20505;-67
2022/08/06 06:07:14;;;;;;;2.70;1.50;;;17.30;88.00;;;;;;5011889;28;20034;-68
2022/08/06 06:09:41;;;;;;;1.83;1.45;;;17.30;88.10;;;;;;5013267;28;20034;-68
2022/08/06 06:12:09;;;;;;;2.00;1.27;;;17.30;88.40;;;;;;5011289;28;20161;-68
2022/08/06 06:14:41;;;;;;;2.83;1.90;;;17.30;88.50;;;;;;5013130;28;20033;-67
2022/08/06 06:17:44;;;;;;;2.60;1.50;;;17.40;88.50;;;;;;5011246;28;20041;-67
2022/08/06 06:20:16;;;;;;;3.63;1.48;;;17.40;88.60;;;;;;5013136;28;20029;-66
2022/08/06 06:22:57;;;;;;;6.18;1.70;;;17.50;88.50;;;;;;4997605;28;20395;-69
2022/08/06 06:25:37;;;;;;;4.20;1.95;;;17.60;88.00;;;;;;5013335;28;20030;-68
2022/08/06 06:28:38;;;;;;;4.90;1.70;;;17.60;88.10;;;;;;5012896;28;20034;-68
2022/08/06 06:31:27;;;;;;;2.38;1.30;;;17.60;88.40;;;;;;5006952;28;20046;-67
2022/08/06 06:34:21;;;;;;;3.13;1.48;;;17.70;87.90;;;;;;5006034;28;20116;-68
2022/08/06 06:37:00;;;;;;;3.60;1.38;;;17.60;87.80;;;;;;5012542;28;20100;-68
2022/08/06 06:39:28;;;;;;;3.55;1.73;;;17.70;88.20;;;;;;5011675;28;20397;-68
2022/08/06 06:42:05;;;;;;;3.65;1.92;;;17.70;87.60;;;;;;5009986;28;20038;-68
2022/08/06 06:44:48;;;;;;;5.80;2.30;;;17.70;87.70;;;;;;5013674;28;20092;-68
2022/08/06 06:47:25;;;;;;;2.38;1.67;;;17.70;87.30;;;;;;5011493;28;20097;-67
2022/08/06 06:50:07;;;;;;;2.40;1.10;;;17.80;87.20;;;;;;5012350;28;20072;-68
2022/08/06 06:52:39;;;;;;;1.73;1.25;;;17.90;87.00;;;;;;5011922;28;20117;-67
2022/08/06 06:55:32;;;;;;;3.80;1.25;;;18.00;86.90;;;;;;5011671;28;20092;-66
2022/08/06 06:58:16;;;;;;;2.00;1.30;;;17.90;86.60;;;;;;5006886;28;20042;-67
2022/08/06 07:00:43;;;;;;;2.77;1.20;;;18.00;86.40;;;;;;5005963;28;20021;-67
2022/08/06 07:03:09;;;;;;;2.97;1.27;;;18.00;86.10;;;;;;5010128;28;20033;-68
2022/08/06 07:05:39;;;;;;;2.70;1.23;;;18.00;86.20;;;;;;5007093;28;20038;-68
2022/08/06 07:08:09;;;;;;;4.00;1.75;;;18.10;85.90;;;;;;5008052;28;20439;-65
2022/08/06 07:10:35;;;;;;;2.20;1.30;;;18.20;85.60;;;;;;5008244;28;20025;-64
2022/08/06 07:13:02;;;;;;;3.60;1.40;;;18.20;85.90;;;;;;5009859;28;20077;-65
2022/08/06 07:15:29;;;;;;;2.35;1.30;;;18.30;86.30;;;;;;5009751;28;20034;-65
2022/08/06 07:17:58;;;;;;;5.13;1.65;;;18.40;85.70;;;;;;5009081;28;20567;-65
2022/08/06 07:20:29;;;;;;;5.25;1.40;;;18.50;85.70;;;;;;5010673;28;20038;-65
2022/08/06 07:22:58;;;;;;;3.70;2.10;;;18.60;86.10;;;;;;5012150;28;20045;-65
2022/08/06 07:25:25;;;;;;;4.35;1.40;;;18.70;85.20;;;;;;5010935;28;20124;-65
2022/08/06 07:27:51;;;;;;;3.47;1.67;;;18.80;85.10;;;;;;5008743;28;20355;-66
2022/08/06 07:30:19;;;;;;;3.17;1.60;;;18.80;84.60;;;;;;5006845;28;20029;-66
2022/08/06 07:32:47;;;;;;;4.70;1.42;;;18.90;84.00;;;;;;5011757;28;20120;-66
2022/08/06 07:35:14;;;;;;;3.22;1.27;;;18.90;83.70;;;;;;5008083;28;20185;-66
2022/08/06 07:37:54;;;;;;;4.55;1.52;;;18.90;83.50;;;;;;5008281;28;20041;-65
2022/08/06 07:40:44;;;;;;;4.05;1.67;;;18.90;83.50;;;;;;5009979;28;20026;-66
2022/08/06 07:43:15;;;;;;;4.25;2.00;;;19.00;84.00;;;;;;5009801;28;20033;-66
2022/08/06 07:45:40;;;;;;;2.80;1.45;;;19.10;84.00;;;;;;5009063;28;20378;-66
2022/08/06 07:48:11;;;;;;;3.03;1.52;;;19.30;83.10;;;;;;5010772;28;20041;-66
2022/08/06 07:50:39;;;;;;;3.42;1.77;;;19.30;82.60;;;;;;5010764;28;20029;-64
2022/08/06 07:53:05;;;;;;;2.53;1.50;;;19.40;82.50;;;;;;5010401;28;20117;-65
2022/08/06 07:55:32;;;;;;;3.53;1.40;;;19.50;82.50;;;;;;5010195;28;20025;-65
2022/08/06 07:58:00;;;;;;;5.57;2.35;;;19.70;81.50;;;;;;5009652;28;20060;-65
2022/08/06 08:00:26;;;;;;;3.90;1.48;;;19.70;81.00;;;;;;5010213;28;20049;-66
2022/08/06 08:08:25;;;;;;;2.70;1.23;;;20.00;79.70;;;;;;4999956;28;20092;-66
2022/08/06 08:10:53;;;;;;;2.15;0.85;;;20.00;79.30;;;;;;5002598;28;20033;-66
2022/08/06 08:13:20;;;;;;;3.20;1.30;;;20.10;78.90;;;;;;5004347;28;20766;-66
2022/08/06 08:15:47;;;;;;;2.72;1.30;;;20.00;78.80;;;;;;5006333;28;20045;-66
2022/08/06 08:18:13;;;;;;;2.17;1.20;;;20.00;78.60;;;;;;5008373;28;20592;-66
2022/08/06 08:20:41;;;;;;;7.32;2.42;;;20.00;78.80;;;;;;5006239;28;20069;-66
2022/08/06 08:23:08;;;;;;;4.05;1.30;;;20.00;78.50;;;;;;5003661;28;20058;-65
2022/08/06 08:25:40;;;;;;;1.60;1.10;;;20.00;76.90;;;;;;5006504;28;20040;-65
2022/08/06 08:28:07;;;;;;;1.75;1.20;;;20.00;76.90;;;;;;5008213;28;20029;-65
2022/08/06 08:30:33;;;;;;;2.13;1.30;;;20.00;76.70;;;;;;5005451;28;20032;-65
2022/08/06 08:32:58;;;;;;;3.78;1.40;;;20.10;76.30;;;;;;5008901;28;20025;-65
2022/08/06 08:35:24;;;;;;;5.05;1.52;;;20.10;76.00;;;;;;5007604;28;20564;-65
2022/08/06 08:37:50;;;;;;;4.05;2.25;;;20.10;76.10;;;;;;5013554;28;20507;-65
2022/08/06 08:40:15;;;;;;;2.50;1.58;;;20.20;76.40;;;;;;5010809;28;20083;-65
2022/08/06 08:42:47;;;;;;;3.42;1.65;;;20.30;75.90;;;;;;5010570;28;20154;-65
2022/08/06 08:45:15;;;;;;;4.68;1.60;;;20.40;75.10;;;;;;5010715;28;20101;-66
2022/08/06 08:47:48;;;;;;;4.30;1.23;;;20.50;74.70;;;;;;5010735;28;20074;-66
2022/08/06 08:50:15;;;;;;;1.67;0.93;;;20.40;72.80;;;;;;5010514;28;20022;-65
2022/08/06 08:52:44;;;;;;;1.77;1.17;;;20.40;73.20;;;;;;5009707;28;20037;-65
2022/08/06 08:55:12;;;;;;;2.90;1.10;;;20.40;72.80;;;;;;5009409;28;20136;-67
2022/08/06 08:57:38;;;;;;;2.58;1.42;;;20.50;72.80;;;;;;4996357;28;20623;-67
2022/08/06 09:00:06;;;;;;;2.25;1.50;;;20.60;72.90;;;;;;5006125;28;20033;-66
2022/08/06 09:02:32;;;;;;;2.33;1.00;;;20.70;71.80;;;;;;5010220;28;20034;-66
2022/08/06 09:04:59;;;;;;;2.47;1.42;;;20.70;70.40;;;;;;5010021;28;20057;-67
2022/08/06 09:07:26;;;;;;;2.30;1.27;;;20.80;70.70;;;;;;5011505;28;20061;-66
2022/08/06 09:09:52;;;;;;;2.03;1.20;;;20.90;71.80;;;;;;5007350;28;20026;-66
2022/08/06 09:12:19;;;;;;;3.20;1.00;;;21.10;71.40;;;;;;5011164;28;20029;-66
2022/08/06 09:14:46;;;;;;;4.28;1.35;;;21.10;70.20;;;;;;5003106;28;20164;-66
2022/08/06 09:17:12;;;;;;;3.20;1.30;;;21.10;70.30;;;;;;4995136;28;20121;-66
2022/08/06 09:19:37;;;;;;;4.43;1.40;;;21.10;71.00;;;;;;5002820;28;20105;-65
2022/08/06 09:22:03;;;;;;;3.17;1.00;;;21.10;70.90;;;;;;5010243;28;20034;-65
2022/08/06 09:24:30;;;;;;;5.03;1.08;;;21.20;69.70;;;;;;5010358;28;20038;-66
2022/08/06 09:27:09;;;;;;;3.03;1.20;;;21.30;69.60;;;;;;5008476;28;20029;-66
2022/08/06 09:29:35;;;;;;;4.03;1.67;;;21.50;69.20;;;;;;5013059;28;20393;-66
2022/08/06 09:32:06;;;;;;;3.17;1.08;;;21.60;69.20;;;;;;5013845;28;20194;-65
2022/08/06 09:34:37;;;;;;;1.52;0.98;;;21.80;68.90;;;;;;5014659;28;20485;-66
2022/08/06 09:37:04;;;;;;;1.92;0.98;;;21.90;68.00;;;;;;5013935;28;20382;-66
2022/08/06 09:39:36;;;;;;;4.40;1.10;;;22.00;67.30;;;;;;5014332;28;20029;-66
2022/08/06 09:42:03;;;;;;;1.13;0.80;;;22.10;67.80;;;;;;5012881;28;20038;-66
2022/08/06 09:44:28;;;;;;;1.40;0.90;;;22.20;66.20;;;;;;5014435;28;20466;-65
2022/08/06 09:46:55;;;;;;;2.75;1.08;;;22.30;65.80;;;;;;5011040;28;20037;-66
2022/08/06 09:49:21;;;;;;;2.00;0.75;;;22.30;64.60;;;;;;5014505;28;20483;-65
2022/08/06 09:51:46;;;;;;;1.25;0.82;;;22.30;64.70;;;;;;5013202;28;20120;-66
2022/08/06 09:54:15;;;;;;;2.63;1.15;;;22.40;65.90;;;;;;5013670;28;20065;-66
2022/08/06 09:56:45;;;;;;;1.55;0.80;;;22.40;64.30;;;;;;5010493;28;20505;-66
2022/08/06 09:59:11;;;;;;;1.10;0.88;;;22.40;65.20;;;;;;5009291;28;20042;-66
2022/08/06 10:01:45;;;;;;;0.95;0.82;;;22.50;64.70;;;;;;5013401;28;20018;-66
2022/08/06 10:04:25;;;;;;;2.43;1.33;;;22.40;63.90;;;;;;5012722;28;20096;-66
2022/08/06 10:06:59;;;;;;;4.97;1.63;;;22.20;64.40;;;;;;5013311;28;20858;-66
2022/08/06 10:09:25;;;;;;;2.92;1.20;;;22.20;64.80;;;;;;4995296;28;20038;-67
2022/08/06 10:11:51;;;;;;;2.40;1.20;;;22.20;65.10;;;;;;5006815;28;20513;-66
2022/08/06 10:14:25;;;;;;;3.28;1.40;;;22.20;64.80;;;;;;5010882;28;20113;-66
2022/08/06 10:17:15;;;;;;;2.63;1.67;;;22.30;64.20;;;;;;5013884;28;20444;-66
2022/08/06 10:19:47;;;;;;;1.63;1.05;;;22.40;64.50;;;;;;5011383;28;20055;-66
2022/08/06 10:22:15;;;;;;;4.10;1.95;;;22.50;63.60;;;;;;5013532;28;20048;-66
2022/08/06 10:24:53;;;;;;;3.30;1.27;;;22.60;63.60;;;;;;5012396;28;20040;-66
2022/08/06 10:27:23;;;;;;;3.33;1.30;;;22.60;63.90;;;;;;5013113;28;20062;-66
2022/08/06 10:29:54;;;;;;;2.20;1.02;;;22.70;64.00;;;;;;5012196;28;20038;-65
2022/08/06 10:32:29;;;;;;;2.35;1.25;;;22.70;63.90;;;;;;5012074;28;20033;-66
2022/08/06 10:34:58;;;;;;;3.00;1.10;;;22.70;63.10;;;;;;5012765;28;20101;-66
2022/08/06 10:37:25;;;;;;;1.95;1.02;;;22.70;63.00;;;;;;5012907;28;20041;-66
2022/08/06 10:39:59;;;;;;;4.03;1.25;;;22.80;63.00;;;;;;5013187;28;20029;-66
2022/08/06 10:42:26;;;;;;;3.83;1.30;;;22.90;63.80;;;;;;5013173;28;20033;-65
2022/08/06 10:44:52;;;;;;;3.35;1.60;;;23.00;63.60;;;;;;5013523;28;20034;-67
2022/08/06 10:47:18;;;;;;;2.78;1.42;;;23.20;61.80;;;;;;5010743;28;20057;-66
2022/08/06 10:49:45;;;;;;;3.42;1.13;;;23.20;61.90;;;;;;5011764;28;20022;-66
2022/08/06 10:52:12;;;;;;;5.55;1.27;;;23.30;61.50;;;;;;5012563;28;20041;-66
2022/08/06 10:54:40;;;;;;;1.75;1.00;;;23.40;60.80;;;;;;5013511;28;20069;-66
2022/08/06 10:57:12;;;;;;;2.58;1.17;;;23.50;60.40;;;;;;5012588;28;20033;-66
2022/08/06 10:59:39;;;;;;;1.52;1.10;;;23.60;59.80;;;;;;5012273;28;20036;-66
2022/08/06 11:02:33;;;;;;;1.88;0.75;;;23.50;60.40;;;;;;5012192;28;20041;-67
2022/08/06 11:05:02;;;;;;;1.65;0.90;;;23.50;60.40;;;;;;5012186;28;20041;-67
2022/08/06 11:08:05;;;;;;;2.95;1.30;;;23.40;59.60;;;;;;5013413;28;20084;-67
2022/08/06 11:10:47;;;;;;;1.77;1.02;;;23.40;60.00;;;;;;5006491;28;20046;-67
2022/08/06 11:13:27;;;;;;;2.38;1.20;;;23.20;59.90;;;;;;4993944;28;20026;-66
2022/08/06 11:15:54;;;;;;;2.10;1.20;;;23.10;60.20;;;;;;5011423;28;20037;-66
2022/08/06 11:18:20;;;;;;;1.40;0.90;;;23.00;60.90;;;;;;5014281;28;20045;-66
2022/08/06 11:20:50;;;;;;;2.63;1.13;;;23.00;60.90;;;;;;5032414;28;20087;-67
2022/08/06 11:23:15;;;;;;;1.88;1.10;;;23.00;60.00;;;;;;5019186;28;20073;-66
2022/08/06 11:25:43;;;;;;;2.20;0.80;;;23.00;59.90;;;;;;5012804;28;20049;-66
2022/08/06 11:28:17;;;;;;;2.30;1.90;;;23.20;59.40;;;;;;5011883;28;20412;-67
2022/08/06 11:30:50;;;;;;;2.63;1.55;;;23.20;60.30;;;;;;5012776;28;20083;-67
2022/08/06 11:33:34;;;;;;;1.65;0.80;;;23.30;59.70;;;;;;5011639;28;20087;-67
2022/08/06 11:36:02;;;;;;;3.30;1.20;;;23.40;58.20;;;;;;5011568;28;20026;-66
2022/08/06 11:38:49;;;;;;;3.08;0.95;;;23.30;58.60;;;;;;5011835;28;20105;-66
2022/08/06 11:41:25;;;;;;;1.30;0.80;;;23.40;58.00;;;;;;5011677;28;20053;-67
2022/08/06 11:44:00;;;;;;;1.00;0.80;;;23.40;56.90;;;;;;5012245;28;20030;-67
2022/08/06 11:46:31;;;;;;;1.85;0.90;;;23.40;57.30;;;;;;5009731;28;20018;-67
2022/08/06 11:49:03;;;;;;;1.45;0.82;;;23.30;58.00;;;;;;4997818;28;20034;-67
2022/08/06 11:51:50;;;;;;;1.40;0.90;;;23.30;57.00;;;;;;5004565;28;20110;-67
2022/08/06 11:54:21;;;;;;;2.15;0.80;;;23.20;57.50;;;;;;4992256;28;20034;-67
2022/08/06 11:57:01;;;;;;;4.20;1.40;;;23.10;58.00;;;;;;5003429;28;20030;-66
2022/08/06 11:59:55;;;;;;;3.65;1.48;;;23.10;57.90;;;;;;5003654;28;20036;-66
2022/08/06 12:02:42;;;;;;;2.85;1.38;;;23.00;57.40;;;;;;5005277;28;20092;-67
2022/08/06 12:05:30;;;;;;;2.63;1.13;;;23.00;57.80;;;;;;4992024;28;20038;-66
2022/08/06 12:08:11;;;;;;;2.42;1.17;;;22.80;56.30;;;;;;5003477;28;20030;-66
2022/08/06 12:10:36;;;;;;;2.08;1.13;;;22.70;56.80;;;;;;5010109;28;20026;-67
2022/08/06 12:13:02;;;;;;;2.70;1.00;;;22.70;56.80;;;;;;5008129;28;20022;-66
2022/08/06 12:15:30;;;;;;;1.52;0.90;;;22.60;56.70;;;;;;5010241;28;20030;-67
2022/08/06 12:18:00;;;;;;;3.15;1.50;;;22.60;57.20;;;;;;5010507;28;20469;-67
2022/08/06 12:20:38;;;;;;;2.10;1.15;;;22.60;57.60;;;;;;4995882;28;20049;-67
2022/08/06 12:23:12;;;;;;;3.42;1.52;;;22.70;56.80;;;;;;5007647;28;20026;-67
2022/08/06 12:25:39;;;;;;;;;;;22.70;57.00;;;;;;5009753;28;20423;-67
2022/08/06 12:28:10;;;;;;;4.60;1.00;;;22.80;57.50;;;;;;5009934;28;20178;-67
2022/08/06 12:30:52;;;;;;;0.95;0.80;;;22.90;56.50;;;;;;5009977;28;20030;-67
2022/08/06 12:33:19;;;;;;;2.30;0.85;;;23.00;55.90;;;;;;5010894;28;20080;-67
2022/08/06 12:35:58;;;;;;;2.88;1.27;;;23.10;56.90;;;;;;5010222;28;20121;-67
2022/08/06 12:38:29;;;;;;;1.48;0.85;;;23.30;57.60;;;;;;5010054;28;20382;-67
2022/08/06 12:40:59;;;;;;;1.00;0.75;;;23.60;57.20;;;;;;5009798;28;20091;-67
2022/08/06 12:43:27;;;;;;;1.13;0.80;;;23.70;54.90;;;;;;5009941;28;20026;-67
2022/08/06 12:46:08;;;;;;;1.48;1.00;;;23.80;53.90;;;;;;5010883;28;20471;-66
2022/08/06 12:48:36;;;;;;;1.08;0.70;;;23.80;53.40;;;;;;5010627;28;20061;-67
2022/08/06 12:51:08;;;;;;;1.05;0.90;;;23.90;53.90;;;;;;5009552;28;20033;-67
2022/08/06 12:53:39;;;;;;;1.30;0.70;;;24.10;53.40;;;;;;5004781;28;20026;-66
2022/08/06 12:56:05;;;;;;;2.03;0.85;;;24.30;52.60;;;;;;4999655;28;20125;-66
2022/08/06 12:58:34;;;;;;;3.15;0.75;;;24.40;53.50;;;;;;5009399;28;20112;-66
2022/08/06 13:01:02;;;;;;;1.38;0.98;;;24.60;52.00;;;;;;5005295;28;20036;-66
2022/08/06 13:03:32;;;;;;;0.85;0.70;;;24.70;53.10;;;;;;5011778;28;20075;-66
2022/08/06 13:06:00;;;;;;;1.27;0.73;;;24.80;53.40;;;;;;5012826;28;20057;-68
2022/08/06 13:08:27;;;;;;;1.15;0.70;;;24.80;51.90;;;;;;5014366;28;20092;-67
2022/08/06 13:10:55;;;;;;;1.35;0.75;;;24.90;51.10;;;;;;5011903;28;20534;-66